createdAt,value
2023-02-26T00:01:47.313Z,78.08
2023-02-26T00:04:15.450Z,76.91
2023-02-26T00:06:53.339Z,78.38
2023-02-26T00:09:24.613Z,78.15
2023-02-26T00:11:53.488Z,78.68
2023-02-26T00:14:21.921Z,77.38
2023-02-26T00:17:26.185Z,77.27
2023-02-26T00:19:54.774Z,78.18
2023-02-26T00:22:23.389Z,77.63
2023-02-26T00:24:51.348Z,76.95
2023-02-26T00:27:19.470Z,76.87
2023-02-26T00:29:48.182Z,78.28
2023-02-26T00:32:20.234Z,77.83
2023-02-26T00:34:49.628Z,77.60
2023-02-26T00:38:09.147Z,77.90
2023-02-26T00:40:49.084Z,76.97
2023-02-26T00:43:29.758Z,77.17
2023-02-26T00:46:10.517Z,78.31
2023-02-26T00:49:23.028Z,77.79
2023-02-26T00:52:02.563Z,78.76
2023-02-26T00:54:31.712Z,76.64
2023-02-26T00:57:00.489Z,77.58
2023-02-26T00:59:28.468Z,78.49
2023-02-26T01:01:58.844Z,78.04
2023-02-26T01:04:27.560Z,77.04
2023-02-26T01:06:58.628Z,76.40
2023-02-26T01:09:29.831Z,78.71
2023-02-26T01:12:03.952Z,76.69
2023-02-26T01:14:33.038Z,75.48
2023-02-26T01:17:16.928Z,76.20
2023-02-26T01:19:54.699Z,77.50
2023-02-26T01:22:33.905Z,79.44
2023-02-26T01:25:51.941Z,76.74
2023-02-26T01:28:20.637Z,79.21
2023-02-26T01:30:49.262Z,78.33
2023-02-26T01:33:30.025Z,78.35
2023-02-26T01:36:24.492Z,76.61
2023-02-26T01:40:03.557Z,77.64
2023-02-26T01:42:38.032Z,75.58
2023-02-26T01:45:24.512Z,77.20
2023-02-26T01:48:06.330Z,75.75
2023-02-26T01:50:38.518Z,75.34
2023-02-26T01:53:26.046Z,76.88
2023-02-26T01:56:06.438Z,77.21
2023-02-26T01:58:40.007Z,77.10
2023-02-26T02:01:08.194Z,76.51
2023-02-26T02:03:40.247Z,80.02
2023-02-26T02:06:24.767Z,77.92
2023-02-26T02:08:56.259Z,79.17
2023-02-26T02:11:24.733Z,77.04
2023-02-26T02:14:35.990Z,78.89
2023-02-26T02:17:25.077Z,77.94
2023-02-26T02:20:40.876Z,78.22
2023-02-26T02:23:22.528Z,76.67
2023-02-26T02:26:38.577Z,76.44
2023-02-26T02:30:06.796Z,77.25
2023-02-26T02:33:18.037Z,76.65
2023-02-26T02:35:59.460Z,77.28
2023-02-26T02:39:04.567Z,78.32
2023-02-26T02:41:49.612Z,78.89
2023-02-26T02:44:22.664Z,78.67
2023-02-26T02:46:56.294Z,78.20
2023-02-26T02:49:48.681Z,78.49
2023-02-26T02:52:45.688Z,78.63
2023-02-26T02:55:34.276Z,76.93
2023-02-26T02:58:25.451Z,76.74
2023-02-26T03:01:01.343Z,76.89
2023-02-26T03:04:00.965Z,76.67
2023-02-26T03:06:29.086Z,78.44
2023-02-26T03:08:58.271Z,78.99
2023-02-26T03:11:26.727Z,79.53
2023-02-26T03:13:55.928Z,79.00
2023-02-26T03:17:00.149Z,78.26
2023-02-26T03:19:44.461Z,78.39
2023-02-26T03:22:45.893Z,77.27
2023-02-26T03:25:23.274Z,78.21
2023-02-26T03:28:17.809Z,78.62
2023-02-26T03:31:02.954Z,75.70
2023-02-26T03:34:05.821Z,75.07
2023-02-26T03:36:51.655Z,76.35
2023-02-26T03:39:41.248Z,76.97
2023-02-26T03:42:18.797Z,76.90
2023-02-26T03:45:15.912Z,76.28
2023-02-26T03:47:56.096Z,77.36
2023-02-26T03:50:51.135Z,76.14
2023-02-26T03:53:30.539Z,77.35
2023-02-26T03:56:39.494Z,76.36
2023-02-26T03:59:16.144Z,75.21
2023-02-26T04:02:02.625Z,75.91
2023-02-26T04:05:11.404Z,77.33
2023-02-26T04:07:40.462Z,75.04
2023-02-26T04:10:11.587Z,76.02
2023-02-26T04:12:42.673Z,76.09
2023-02-26T04:15:11.977Z,76.83
2023-02-26T04:17:39.969Z,75.61
2023-02-26T04:20:12.290Z,77.82
2023-02-26T04:22:40.309Z,76.06
2023-02-26T04:25:08.481Z,76.32
2023-02-26T04:27:56.298Z,76.90
2023-02-26T04:30:24.501Z,74.99
2023-02-26T04:32:52.548Z,75.09
2023-02-26T04:35:20.473Z,74.46
2023-02-26T04:37:48.376Z,76.40
2023-02-26T04:40:16.672Z,76.36
2023-02-26T04:42:47.321Z,75.28
2023-02-26T04:45:15.726Z,75.85
2023-02-26T04:47:43.880Z,74.25
2023-02-26T04:50:12.200Z,76.44
2023-02-26T04:52:40.110Z,77.60
2023-02-26T04:55:08.972Z,75.56
2023-02-26T04:57:36.986Z,75.61
2023-02-26T05:00:07.787Z,73.96
2023-02-26T05:02:35.794Z,74.75
2023-02-26T05:05:07.233Z,73.72
2023-02-26T05:07:36.540Z,74.24
2023-02-26T05:10:07.916Z,74.08
2023-02-26T05:12:36.421Z,75.89
2023-02-26T05:15:06.282Z,74.75
2023-02-26T05:17:35.487Z,73.88
2023-02-26T05:20:05.200Z,73.17
2023-02-26T05:22:33.370Z,75.12
2023-02-26T05:25:01.440Z,73.91
2023-02-26T05:27:29.344Z,73.41
2023-02-26T05:29:57.513Z,73.45
2023-02-26T05:32:34.706Z,74.39
2023-02-26T05:35:02.641Z,73.40
2023-02-26T05:37:34.004Z,75.09
2023-02-26T05:40:02.035Z,73.04
2023-02-26T05:42:29.964Z,73.25
2023-02-26T05:44:57.932Z,72.59
2023-02-26T05:47:26.070Z,72.25
2023-02-26T05:49:56.728Z,73.11
2023-02-26T05:52:24.905Z,73.31
2023-02-26T05:54:56.384Z,72.97
2023-02-26T05:57:24.700Z,74.41
2023-02-26T05:59:52.663Z,75.46
2023-02-26T06:02:20.996Z,73.55
2023-02-26T06:04:49.010Z,72.86
2023-02-26T06:07:16.981Z,72.26
2023-02-26T06:09:49.055Z,71.14
2023-02-26T06:12:20.547Z,72.46
2023-02-26T06:14:48.602Z,73.17
2023-02-26T06:17:17.044Z,73.08
2023-02-26T06:19:45.409Z,72.43
2023-02-26T06:22:13.462Z,72.72
2023-02-26T06:24:41.359Z,71.79
2023-02-26T06:27:13.100Z,73.03
2023-02-26T06:29:41.257Z,72.72
2023-02-26T06:32:09.611Z,73.07
2023-02-26T06:34:49.973Z,72.10
2023-02-26T06:37:18.113Z,70.41
2023-02-26T06:39:46.698Z,72.24
2023-02-26T06:42:14.898Z,71.44
2023-02-26T06:44:42.762Z,70.03
2023-02-26T06:47:10.720Z,70.13
2023-02-26T06:49:38.664Z,70.82
2023-02-26T06:52:06.949Z,70.34
2023-02-26T06:54:34.966Z,69.97
2023-02-26T06:57:03.328Z,70.86
2023-02-26T06:59:31.482Z,70.02
2023-02-26T07:01:59.535Z,68.70
2023-02-26T07:04:27.509Z,69.93
2023-02-26T07:06:56.682Z,67.99
2023-02-26T07:09:24.645Z,67.86
2023-02-26T07:12:09.425Z,70.56
2023-02-26T07:14:37.459Z,71.62
2023-02-26T07:17:05.829Z,71.40
2023-02-26T07:19:33.898Z,71.33
2023-02-26T07:22:02.069Z,70.72
2023-02-26T07:24:30.000Z,70.26
2023-02-26T07:26:57.894Z,69.77
2023-02-26T07:29:25.773Z,69.96
2023-02-26T07:31:54.153Z,69.41
2023-02-26T07:34:22.111Z,69.74
2023-02-26T07:36:50.702Z,67.76
2023-02-26T07:39:21.625Z,68.23
2023-02-26T07:41:49.447Z,67.00
2023-02-26T07:44:17.313Z,70.92
2023-02-26T07:46:45.722Z,68.28
2023-02-26T07:49:13.632Z,70.68
2023-02-26T07:51:45.809Z,68.15
2023-02-26T07:54:14.973Z,68.97
2023-02-26T07:56:45.725Z,69.05
2023-02-26T07:59:16.672Z,69.82
2023-02-26T08:01:44.628Z,70.22
2023-02-26T08:04:12.604Z,70.19
2023-02-26T08:06:42.751Z,69.93
2023-02-26T08:09:10.570Z,69.68
2023-02-26T08:11:45.478Z,69.90
2023-02-26T08:14:13.487Z,69.36
2023-02-26T08:16:41.552Z,71.72
2023-02-26T08:19:15.787Z,68.82
2023-02-26T08:21:43.686Z,68.95
2023-02-26T08:24:19.655Z,69.41
2023-02-26T08:26:49.906Z,67.01
2023-02-26T08:29:18.470Z,68.71
2023-02-26T08:31:46.894Z,68.77
2023-02-26T08:34:15.243Z,67.27
2023-02-26T08:36:43.169Z,70.29
2023-02-26T08:39:14.263Z,67.63
2023-02-26T08:41:42.443Z,66.14
2023-02-26T08:44:10.678Z,68.72
2023-02-26T08:46:38.634Z,66.49
2023-02-26T08:49:07.393Z,69.45
2023-02-26T08:51:37.689Z,69.18
2023-02-26T08:54:05.715Z,68.97
2023-02-26T08:56:33.778Z,69.12
2023-02-26T08:59:05.547Z,67.96
2023-02-26T09:01:33.784Z,67.63
2023-02-26T09:04:02.048Z,66.39
2023-02-26T09:06:30.402Z,67.63
2023-02-26T09:08:58.248Z,66.64
2023-02-26T09:11:26.628Z,66.42
2023-02-26T09:14:36.945Z,64.78
2023-02-26T09:17:00.662Z,67.81
2023-02-26T09:19:39.455Z,61.35
2023-02-26T09:22:07.640Z,63.55
2023-02-26T09:24:35.931Z,64.70
2023-02-26T09:27:04.353Z,64.58
2023-02-26T09:29:35.401Z,65.93
2023-02-26T09:32:19.107Z,67.04
2023-02-26T09:34:47.030Z,68.15
2023-02-26T09:37:15.255Z,67.45
2023-02-26T09:39:43.203Z,67.06
2023-02-26T09:42:19.622Z,65.24
2023-02-26T09:44:48.716Z,66.33
2023-02-26T09:47:51.806Z,64.44
2023-02-26T09:50:46.996Z,65.59
2023-02-26T09:53:35.509Z,63.52
2023-02-26T09:56:18.428Z,62.82
2023-02-26T09:58:46.991Z,60.57
2023-02-26T10:01:43.735Z,63.79
2023-02-26T10:05:07.426Z,60.76
2023-02-26T10:08:20.208Z,59.91
2023-02-26T10:11:20.289Z,61.27
2023-02-26T10:15:02.189Z,58.82
2023-02-26T10:17:45.537Z,54.57
2023-02-26T10:20:40.814Z,58.38
2023-02-26T10:23:50.660Z,56.49
2023-02-26T10:26:58.667Z,58.39
2023-02-26T10:29:48.570Z,55.98
2023-02-26T10:32:54.675Z,55.36
2023-02-26T10:35:28.326Z,56.61
2023-02-26T10:38:11.588Z,55.22
2023-02-26T10:41:18.497Z,53.94
2023-02-26T10:44:33.480Z,57.47
2023-02-26T10:47:46.457Z,57.82
2023-02-26T10:50:20.758Z,57.07
2023-02-26T10:52:51.869Z,58.39
2023-02-26T10:55:55.369Z,55.00
2023-02-26T10:58:27.181Z,56.54
2023-02-26T11:00:56.826Z,54.40
2023-02-26T11:03:40.616Z,55.83
2023-02-26T11:06:10.275Z,55.46
2023-02-26T11:08:48.929Z,57.18
2023-02-26T11:12:15.761Z,54.15
2023-02-26T11:14:47.007Z,55.02
2023-02-26T11:17:29.529Z,56.23
2023-02-26T11:20:31.423Z,51.49
2023-02-26T11:23:01.040Z,53.30
2023-02-26T11:25:36.191Z,53.56
2023-02-26T11:28:42.914Z,52.86
2023-02-26T11:31:15.594Z,53.05
2023-02-26T11:34:04.072Z,53.01
2023-02-26T11:36:34.587Z,52.65
2023-02-26T11:39:49.614Z,53.91
2023-02-26T11:42:18.334Z,54.06
2023-02-26T11:44:48.348Z,55.44
2023-02-26T11:47:25.813Z,51.68
2023-02-26T11:50:05.605Z,52.79
2023-02-26T11:52:42.168Z,52.45
2023-02-26T11:55:34.694Z,51.48
2023-02-26T11:58:05.473Z,53.62
2023-02-26T12:00:38.308Z,52.41
2023-02-26T12:03:31.299Z,53.49
2023-02-26T12:06:01.283Z,50.57
2023-02-26T12:08:42.194Z,51.72
2023-02-26T12:11:51.208Z,53.08
2023-02-26T12:14:33.578Z,52.39
2023-02-26T12:17:35.263Z,54.00
2023-02-26T12:20:59.647Z,52.26
2023-02-26T12:24:04.391Z,52.47
2023-02-26T12:27:13.766Z,51.98
2023-02-26T12:30:07.467Z,49.78
2023-02-26T12:33:29.993Z,52.08
2023-02-26T12:36:48.002Z,51.06
2023-02-26T12:39:35.679Z,48.16
2023-02-26T12:42:43.244Z,51.34
2023-02-26T12:45:29.880Z,50.11
2023-02-26T12:48:09.554Z,48.29
2023-02-26T12:51:44.752Z,52.06
2023-02-26T12:54:51.513Z,51.28
2023-02-26T12:58:13.459Z,50.38
2023-02-26T13:01:37.283Z,49.80
2023-02-26T13:04:34.795Z,49.20
2023-02-26T13:07:59.498Z,49.90
2023-02-26T13:11:57.131Z,49.15
2023-02-26T13:15:27.645Z,52.30
2023-02-26T13:18:15.708Z,53.62
2023-02-26T13:21:03.758Z,49.26
2023-02-26T13:23:53.412Z,51.79
2023-02-26T13:26:23.506Z,52.63
2023-02-26T13:29:09.413Z,51.61
2023-02-26T13:31:58.798Z,47.72
2023-02-26T13:34:58.714Z,50.52
2023-02-26T13:37:32.104Z,51.87
2023-02-26T13:40:30.086Z,52.56
2023-02-26T13:43:22.394Z,51.61
2023-02-26T13:46:02.819Z,47.46
2023-02-26T13:49:00.726Z,45.46
2023-02-26T13:51:44.544Z,50.60
2023-02-26T13:54:15.445Z,51.23
2023-02-26T13:57:25.773Z,47.24
2023-02-26T14:00:21.914Z,45.60
2023-02-26T14:03:26.348Z,47.78
2023-02-26T14:06:23.181Z,48.13
2023-02-26T14:08:58.324Z,47.62
2023-02-26T14:11:45.950Z,48.96
2023-02-26T14:14:22.957Z,50.11
2023-02-26T14:17:09.992Z,49.19
2023-02-26T14:19:53.120Z,49.16
2023-02-26T14:22:30.102Z,48.27
2023-02-26T14:25:22.690Z,45.65
2023-02-26T14:27:50.875Z,48.20
2023-02-26T14:30:34.797Z,49.01
2023-02-26T14:33:06.057Z,47.93
2023-02-26T14:35:49.029Z,48.99
2023-02-26T14:38:27.911Z,49.06
2023-02-26T14:41:06.347Z,47.92
2023-02-26T14:43:43.462Z,48.42
2023-02-26T14:46:12.207Z,46.97
2023-02-26T14:48:40.404Z,49.33
2023-02-26T14:51:34.039Z,49.27
2023-02-26T14:54:23.721Z,47.76
2023-02-26T14:57:31.393Z,50.06
2023-02-26T15:00:22.644Z,49.69
2023-02-26T15:02:56.558Z,49.25
2023-02-26T15:06:04.360Z,48.04
2023-02-26T15:09:06.130Z,50.99
2023-02-26T15:12:24.682Z,50.75
2023-02-26T15:15:13.441Z,46.38
2023-02-26T15:18:28.838Z,48.08
2023-02-26T15:21:40.645Z,46.28
2023-02-26T15:24:15.736Z,49.87
2023-02-26T15:26:53.275Z,45.32
2023-02-26T15:29:32.693Z,44.06
2023-02-26T15:32:28.137Z,46.56
2023-02-26T15:35:19.427Z,48.29
2023-02-26T15:37:59.341Z,46.08
2023-02-26T15:40:37.481Z,46.26
2023-02-26T15:43:09.064Z,45.58
2023-02-26T15:46:01.337Z,45.05
2023-02-26T15:48:43.035Z,48.60
2023-02-26T15:51:16.576Z,48.00
2023-02-26T15:53:52.649Z,46.70
2023-02-26T15:56:28.478Z,50.71
2023-02-26T15:59:18.892Z,52.11
2023-02-26T16:01:50.308Z,48.83
2023-02-26T16:04:21.924Z,51.36
2023-02-26T16:06:57.306Z,49.96
2023-02-26T16:09:35.346Z,50.67
2023-02-26T16:12:21.948Z,49.29
2023-02-26T16:15:04.224Z,49.44
2023-02-26T16:17:42.811Z,50.04
2023-02-26T16:20:20.935Z,49.32
2023-02-26T16:23:12.338Z,51.97
2023-02-26T16:25:55.531Z,52.28
2023-02-26T16:28:37.787Z,50.93
2023-02-26T16:31:09.261Z,51.40
2023-02-26T16:33:38.382Z,51.64
2023-02-26T16:36:21.657Z,51.52
2023-02-26T16:39:18.233Z,54.41
2023-02-26T16:42:00.597Z,52.54
2023-02-26T16:44:31.353Z,53.04
2023-02-26T16:47:01.364Z,53.06
2023-02-26T16:49:36.314Z,51.93
2023-02-26T16:52:05.295Z,52.95
2023-02-26T16:54:43.691Z,53.59
2023-02-26T16:57:28.460Z,52.28
2023-02-26T17:00:02.022Z,51.80
2023-02-26T17:02:37.379Z,52.90
2023-02-26T17:05:35.436Z,51.71
2023-02-26T17:08:18.914Z,53.18
2023-02-26T17:11:02.015Z,51.33
2023-02-26T17:13:34.553Z,50.36
2023-02-26T17:16:10.605Z,52.70
2023-02-26T17:18:38.945Z,53.85
2023-02-26T17:21:07.983Z,52.25
2023-02-26T17:23:39.366Z,52.97
2023-02-26T17:26:07.679Z,54.38
2023-02-26T17:28:41.966Z,53.16
2023-02-26T17:31:11.465Z,52.62
2023-02-26T17:33:44.263Z,54.50
2023-02-26T17:36:20.210Z,54.32
2023-02-26T17:38:49.946Z,54.25
2023-02-26T17:41:18.768Z,56.10
2023-02-26T17:43:46.697Z,54.73
2023-02-26T17:46:14.709Z,55.54
2023-02-26T17:48:42.662Z,55.08
2023-02-26T17:51:13.761Z,57.22
2023-02-26T17:53:43.884Z,56.91
2023-02-26T17:56:31.524Z,56.74
2023-02-26T17:59:01.111Z,55.88
2023-02-26T18:01:29.873Z,56.88
2023-02-26T18:04:00.777Z,56.33
2023-02-26T18:06:32.533Z,56.33
2023-02-26T18:09:01.489Z,54.95
2023-02-26T18:11:29.417Z,54.63
2023-02-26T18:13:57.464Z,54.32
2023-02-26T18:16:37.605Z,54.64
2023-02-26T18:19:08.263Z,55.15
2023-02-26T18:21:36.299Z,54.77
2023-02-26T18:24:04.664Z,55.83
2023-02-26T18:26:36.355Z,55.13
2023-02-26T18:29:04.303Z,55.48
2023-02-26T18:31:35.505Z,55.30
2023-02-26T18:34:04.425Z,54.93
2023-02-26T18:36:37.682Z,54.91
2023-02-26T18:39:12.720Z,54.62
2023-02-26T18:41:40.677Z,56.14
2023-02-26T18:44:08.604Z,54.85
2023-02-26T18:46:40.195Z,55.10
2023-02-26T18:49:21.166Z,54.77
2023-02-26T18:51:49.200Z,55.07
2023-02-26T18:54:17.673Z,54.05
2023-02-26T18:56:47.061Z,55.33
2023-02-26T18:59:14.897Z,54.94
2023-02-26T19:01:42.820Z,54.91
2023-02-26T19:04:10.840Z,55.42
2023-02-26T19:06:38.682Z,56.89
2023-02-26T19:09:06.793Z,55.97
2023-02-26T19:11:34.783Z,55.78
2023-02-26T19:14:05.227Z,54.64
2023-02-26T19:16:38.062Z,55.18
2023-02-26T19:19:11.212Z,56.09
2023-02-26T19:21:41.009Z,56.27
2023-02-26T19:24:11.978Z,56.01
2023-02-26T19:26:40.939Z,56.87
2023-02-26T19:29:17.112Z,57.64
2023-02-26T19:31:45.665Z,56.74
2023-02-26T19:34:17.351Z,56.19
2023-02-26T19:36:48.207Z,55.81
2023-02-26T19:39:18.711Z,56.46
2023-02-26T19:41:53.289Z,56.56
2023-02-26T19:44:27.483Z,57.22
2023-02-26T19:46:55.564Z,57.30
2023-02-26T19:49:23.585Z,58.62
2023-02-26T19:51:52.150Z,58.26
2023-02-26T19:54:20.509Z,58.40
2023-02-26T19:56:49.525Z,58.76
2023-02-26T19:59:19.752Z,57.54
2023-02-26T20:01:49.583Z,58.45
2023-02-26T20:04:18.791Z,59.17
2023-02-26T20:06:46.707Z,59.56
2023-02-26T20:09:14.730Z,59.21
2023-02-26T20:11:43.126Z,61.82
2023-02-26T20:14:11.103Z,60.71
2023-02-26T20:16:39.363Z,60.38
2023-02-26T20:19:07.395Z,61.26
2023-02-26T20:21:35.322Z,60.84
2023-02-26T20:24:03.289Z,61.42
2023-02-26T20:26:34.452Z,61.35
2023-02-26T20:29:02.435Z,61.31
2023-02-26T20:31:30.893Z,60.75
2023-02-26T20:33:59.160Z,60.49
2023-02-26T20:36:27.392Z,61.64
2023-02-26T20:38:55.419Z,60.72
2023-02-26T20:41:28.441Z,60.83
2023-02-26T20:43:59.587Z,60.20
2023-02-26T20:46:31.357Z,60.57
2023-02-26T20:49:03.496Z,59.66
2023-02-26T20:51:31.713Z,60.89
2023-02-26T20:53:59.737Z,61.40
2023-02-26T20:56:31.707Z,61.85
2023-02-26T20:59:02.285Z,59.79
2023-02-26T21:01:35.513Z,60.33
2023-02-26T21:04:09.087Z,59.43
2023-02-26T21:06:37.722Z,61.12
2023-02-26T21:09:08.539Z,59.79
2023-02-26T21:11:37.261Z,60.12
2023-02-26T21:14:08.994Z,60.59
2023-02-26T21:16:43.068Z,59.99
2023-02-26T21:19:11.056Z,59.44
2023-02-26T21:21:41.852Z,59.62
2023-02-26T21:24:09.669Z,59.47
2023-02-26T21:26:40.394Z,60.94
2023-02-26T21:29:10.770Z,59.13
2023-02-26T21:31:43.628Z,59.67
2023-02-26T21:34:32.763Z,60.29
2023-02-26T21:37:12.118Z,59.83
2023-02-26T21:39:43.148Z,59.84
2023-02-26T21:42:15.636Z,60.14
2023-02-26T21:44:43.619Z,61.06
2023-02-26T21:47:11.978Z,59.93
2023-02-26T21:49:41.052Z,62.71
2023-02-26T21:52:09.604Z,66.25
2023-02-26T21:54:37.664Z,65.45
2023-02-26T21:57:05.651Z,64.78
2023-02-26T21:59:33.746Z,63.51
2023-02-26T22:02:02.335Z,62.44
2023-02-26T22:04:33.935Z,61.96
2023-02-26T22:07:01.841Z,61.52
2023-02-26T22:09:29.808Z,60.68
2023-02-26T22:11:58.585Z,61.18
2023-02-26T22:14:26.555Z,60.52
2023-02-26T22:16:54.719Z,59.43
2023-02-26T22:19:22.597Z,59.96
2023-02-26T22:21:50.433Z,60.81
2023-02-26T22:24:18.333Z,60.96
2023-02-26T22:26:48.776Z,61.72
2023-02-26T22:29:19.542Z,62.80
2023-02-26T22:31:47.802Z,62.44
2023-02-26T22:34:16.639Z,62.67
2023-02-26T22:36:46.779Z,63.09
2023-02-26T22:39:14.813Z,64.20
2023-02-26T22:41:42.661Z,63.95
2023-02-26T22:44:12.321Z,61.68
2023-02-26T22:46:40.352Z,60.34
2023-02-26T22:49:08.250Z,60.30
2023-02-26T22:51:39.718Z,60.92
2023-02-26T22:54:08.354Z,60.28
2023-02-26T22:56:36.176Z,59.95
2023-02-26T22:59:04.197Z,60.25
2023-02-26T23:01:32.196Z,60.50
2023-02-26T23:04:02.993Z,61.11
2023-02-26T23:06:30.876Z,61.07
2023-02-26T23:08:58.833Z,60.85
2023-02-26T23:11:27.018Z,60.79
2023-02-26T23:13:54.994Z,61.90
2023-02-26T23:16:23.277Z,61.15
2023-02-26T23:18:51.333Z,62.28
2023-02-26T23:21:19.590Z,63.40
2023-02-26T23:23:47.500Z,63.47
2023-02-26T23:26:15.404Z,64.64
2023-02-26T23:28:43.286Z,63.92
2023-02-26T23:31:11.299Z,64.33
2023-02-26T23:33:39.308Z,64.17
2023-02-26T23:36:07.978Z,63.94
2023-02-26T23:38:36.522Z,63.97
2023-02-26T23:41:04.596Z,63.74
2023-02-26T23:43:33.066Z,62.71
2023-02-26T23:46:00.994Z,63.07
2023-02-26T23:48:31.981Z,63.62
2023-02-26T23:51:00.267Z,63.21
2023-02-26T23:53:30.258Z,61.98
2023-02-26T23:55:58.911Z,61.86
2023-02-26T23:58:29.754Z,61.56
